createdAt,value
2023-03-25T00:02:41.987Z,4.2
2023-03-25T00:08:18.736Z,4.1
2023-03-25T00:13:39.365Z,4.1
2023-03-25T00:19:31.711Z,4
2023-03-25T00:24:52.204Z,3.9
2023-03-25T00:30:28.276Z,3.9
2023-03-25T00:36:05.739Z,3.8
2023-03-25T00:41:57.523Z,3.6
2023-03-25T00:47:34.223Z,3.7
2023-03-25T00:53:21.258Z,3.6
2023-03-25T00:59:12.343Z,3.6
2023-03-25T01:05:05.763Z,3.6
2023-03-25T01:10:42.198Z,3.5
2023-03-25T01:16:18.770Z,3.5
2023-03-25T01:21:55.616Z,3.4
2023-03-25T01:27:47.713Z,3.3
2023-03-25T01:33:39.696Z,3.2
2023-03-25T01:39:00.458Z,3.1
2023-03-25T01:44:32.202Z,3
2023-03-25T01:50:08.508Z,2.9
2023-03-25T01:55:59.928Z,2.7
2023-03-25T02:01:36.417Z,2.6
2023-03-25T02:07:12.944Z,2.4
2023-03-25T02:12:49.139Z,2.3
2023-03-25T02:18:41.330Z,2.1
2023-03-25T02:24:32.982Z,2
2023-03-25T02:30:08.361Z,1.9
2023-03-25T02:36:00.413Z,1.8
2023-03-25T02:41:36.746Z,1.8
2023-03-25T02:47:12.685Z,1.7
2023-03-25T02:53:04.734Z,1.6
2023-03-25T02:58:56.072Z,1.6
2023-03-25T03:04:47.752Z,1.6
2023-03-25T03:10:08.388Z,1.6
2023-03-25T03:15:44.190Z,1.5
2023-03-25T03:21:36.298Z,1.4
2023-03-25T03:27:28.258Z,1.4
2023-03-25T03:34:06.716Z,1.3
2023-03-25T03:39:57.942Z,1.3
2023-03-25T03:45:34.466Z,1.2
2023-03-25T03:51:26.471Z,1.2
2023-03-25T03:57:02.991Z,1.2
2023-03-25T04:02:54.736Z,1.2
2023-03-25T04:08:30.615Z,1.1
2023-03-25T04:14:21.947Z,1.3
2023-03-25T04:20:01.033Z,1.4
2023-03-25T04:25:37.361Z,1.4
2023-03-25T04:31:13.278Z,1.4
2023-03-25T04:37:05.469Z,1.4
2023-03-25T04:42:56.820Z,1.6
2023-03-25T04:48:17.716Z,1.6
2023-03-25T04:54:09.637Z,2
2023-03-25T05:00:01.546Z,2.5
2023-03-25T05:05:53.390Z,3.3
2023-03-25T05:11:45.197Z,5.1
2023-03-25T05:17:36.565Z,7.6
2023-03-25T05:23:12.818Z,10.2
2023-03-25T05:29:04.261Z,12.6
2023-03-25T05:34:57.345Z,15
2023-03-25T05:40:49.605Z,18.1
2023-03-25T05:46:26.947Z,20.8
2023-03-25T05:52:17.792Z,23.8
2023-03-25T05:58:13.846Z,27.3
2023-03-25T06:04:22.289Z,29.9
2023-03-25T06:10:12.666Z,32.9
2023-03-25T06:16:04.149Z,36.1
2023-03-25T06:21:55.901Z,39.4
2023-03-25T06:27:47.190Z,42.3
2023-03-25T06:34:00.367Z,45.1
2023-03-25T06:39:51.672Z,48.2
2023-03-25T06:45:27.721Z,51.3
2023-03-25T06:51:04.073Z,54.2
2023-03-25T06:56:55.859Z,57.5
2023-03-25T07:02:47.157Z,54.4
2023-03-25T07:08:40.320Z,46.1
2023-03-25T07:14:32.631Z,50.6
2023-03-25T07:20:29.884Z,58.3
2023-03-25T07:26:22.434Z,53.4
2023-03-25T07:32:15.036Z,48.2
2023-03-25T07:38:07.612Z,59.1
2023-03-25T07:43:59.992Z,56.3
2023-03-25T07:49:58.704Z,50.4
2023-03-25T07:55:51.402Z,51.6
2023-03-25T08:01:45.552Z,53.5
2023-03-25T08:07:40.034Z,54.7
2023-03-25T08:13:34.141Z,56.4
2023-03-25T08:19:26.413Z,58.8
2023-03-25T08:25:05.000Z,60.8
2023-03-25T08:30:58.029Z,55.4
2023-03-25T08:36:49.441Z,50.7
2023-03-25T08:42:25.761Z,51.3
2023-03-25T08:48:01.667Z,54.3
2023-03-25T08:53:36.924Z,67.4
2023-03-25T08:59:13.388Z,59.6
2023-03-25T09:05:08.622Z,61.9
2023-03-25T09:11:11.264Z,67.1
2023-03-25T09:17:12.595Z,66.5
2023-03-25T09:23:06.373Z,56.3
2023-03-25T09:28:58.895Z,60.9
2023-03-25T09:34:51.298Z,64.9
2023-03-25T09:40:28.245Z,70.9
2023-03-25T09:46:24.331Z,62.1
2023-03-25T09:52:19.456Z,58.3
2023-03-25T09:58:11.704Z,61.5
2023-03-25T10:03:48.954Z,59.1
2023-03-25T10:09:25.752Z,60
2023-03-25T10:15:04.571Z,62.4
2023-03-25T10:20:56.445Z,58.4
2023-03-25T10:26:48.401Z,59.3
2023-03-25T10:32:40.134Z,70.6
2023-03-25T10:38:33.257Z,65.3
2023-03-25T10:44:25.416Z,70.4
2023-03-25T10:50:17.472Z,76.3
2023-03-25T10:56:09.032Z,77.1
2023-03-25T11:02:01.010Z,74.3
2023-03-25T11:07:53.790Z,75
2023-03-25T11:14:11.142Z,72.2
2023-03-25T11:19:51.800Z,70.3
2023-03-25T11:25:43.552Z,68.5
2023-03-25T11:31:35.476Z,70.9
2023-03-25T11:37:27.707Z,64.2
2023-03-25T11:43:20.113Z,60.8
2023-03-25T11:48:40.669Z,58.7
2023-03-25T11:54:17.199Z,56.1
2023-03-25T12:00:09.106Z,54.3
2023-03-25T12:05:30.793Z,52.3
2023-03-25T12:11:07.492Z,50.3
2023-03-25T12:17:02.462Z,47.8
2023-03-25T12:22:55.236Z,44.9
2023-03-25T12:28:31.044Z,42.8
2023-03-25T12:34:23.425Z,41.3
2023-03-25T12:40:31.927Z,40.6
2023-03-25T12:46:24.178Z,39.6
2023-03-25T12:52:03.536Z,39.4
2023-03-25T12:57:24.562Z,39.2
2023-03-25T13:03:18.173Z,38.6
2023-03-25T13:09:10.028Z,37.6
2023-03-25T13:15:01.735Z,36.4
2023-03-25T13:20:47.322Z,35.4
2023-03-25T13:26:44.734Z,33.9
2023-03-25T13:32:37.470Z,32.4
2023-03-25T13:38:14.439Z,30.9
2023-03-25T13:44:09.322Z,29.3
2023-03-25T13:55:25.072Z,26.4
2023-03-25T14:01:17.299Z,25.5
2023-03-25T14:07:11.925Z,24.6
2023-03-25T14:13:04.118Z,23.8
2023-03-25T14:18:25.768Z,23
2023-03-25T14:24:06.461Z,22.4
2023-03-25T14:29:58.441Z,21.4
2023-03-25T14:35:52.332Z,20.2
2023-03-25T14:41:41.338Z,19.4
2023-03-25T14:47:17.618Z,19.1
2023-03-25T14:53:09.021Z,19.1
2023-03-25T14:59:02.500Z,19.5
2023-03-25T15:04:56.669Z,20.2
2023-03-25T15:16:24.342Z,21.8
2023-03-25T15:22:16.645Z,21.8
2023-03-25T15:28:08.370Z,21.6
2023-03-25T15:34:00.233Z,21.3
2023-03-25T15:40:03.226Z,20.9
2023-03-25T15:46:07.183Z,20.7
2023-03-25T15:51:59.463Z,20.4
2023-03-25T15:57:56.558Z,20
2023-03-25T16:03:48.038Z,19.6
2023-03-25T16:09:39.516Z,19.4
2023-03-25T16:15:30.978Z,19.1
2023-03-25T16:26:46.069Z,18.4
2023-03-25T16:32:24.862Z,18.2
2023-03-25T16:38:00.846Z,17.9
2023-03-25T16:43:36.960Z,17.5
2023-03-25T16:49:14.795Z,17.1
2023-03-25T16:54:50.701Z,16.7
2023-03-25T17:00:42.762Z,16.3
2023-03-25T17:06:35.864Z,15.8
2023-03-25T17:12:27.164Z,15.3
2023-03-25T17:18:06.452Z,14.8
2023-03-25T17:23:43.613Z,14.3
2023-03-25T17:29:35.462Z,13.9
2023-03-25T17:35:29.059Z,13.4
2023-03-25T17:41:05.625Z,13.1
2023-03-25T17:46:59.183Z,12.8
2023-03-25T17:52:50.160Z,12.4
2023-03-25T17:58:41.674Z,12.1
2023-03-25T18:04:34.284Z,11.6
2023-03-25T18:10:25.330Z,11.3
2023-03-25T18:16:16.745Z,10.9
2023-03-25T18:21:53.772Z,10.6
2023-03-25T18:27:57.129Z,10.3
2023-03-25T18:33:48.758Z,9.9
2023-03-25T18:39:40.725Z,9.7
2023-03-25T18:45:16.186Z,9.6
2023-03-25T18:51:08.182Z,9.4
2023-03-25T18:56:43.546Z,9.3
2023-03-25T19:02:35.150Z,9.1
2023-03-25T19:08:40.828Z,9
2023-03-25T19:14:44.916Z,8.9
2023-03-25T19:20:44.728Z,8.9
2023-03-25T19:26:35.723Z,8.7
2023-03-25T19:32:27.818Z,8.5
2023-03-25T19:38:20.564Z,8.4
2023-03-25T19:43:57.326Z,8.2
2023-03-25T19:49:49.031Z,8.1
2023-03-25T19:55:25.384Z,7.9
2023-03-25T20:01:17.213Z,7.8
2023-03-25T20:06:54.612Z,7.6
2023-03-25T20:12:55.452Z,7.4
2023-03-25T20:18:32.330Z,7.4
2023-03-25T20:24:23.000Z,7.4
2023-03-25T20:29:43.642Z,7.3
2023-03-25T20:35:31.267Z,7.2
2023-03-25T20:41:39.705Z,7.1
2023-03-25T20:47:30.354Z,7.2
2023-03-25T20:53:22.272Z,7.2
2023-03-25T20:59:15.076Z,7.3
2023-03-25T21:04:51.341Z,7.3
2023-03-25T21:10:54.400Z,7.3
2023-03-25T21:16:57.368Z,7.4
2023-03-25T21:22:51.449Z,7.7
2023-03-25T21:28:29.691Z,7.8
2023-03-25T21:34:24.652Z,7.9
2023-03-25T21:40:13.960Z,8.1
2023-03-25T21:46:24.501Z,8.2
2023-03-25T21:52:16.571Z,8.3
2023-03-25T21:57:39.805Z,8.4
2023-03-25T22:03:17.073Z,8.5
2023-03-25T22:08:53.867Z,8.6
2023-03-25T22:14:44.485Z,8.8
2023-03-25T22:20:36.999Z,8.9
2023-03-25T22:26:31.449Z,9
2023-03-25T22:32:07.477Z,9.1
2023-03-25T22:37:58.898Z,9.2
2023-03-25T22:43:35.326Z,9.3
2023-03-25T22:49:27.549Z,9.5
2023-03-25T22:55:20.143Z,9.7
2023-03-25T23:01:12.603Z,9.8
2023-03-25T23:06:33.885Z,9.8
2023-03-25T23:12:20.276Z,9.8
2023-03-25T23:18:13.733Z,9.8
2023-03-25T23:23:52.449Z,9.7
2023-03-25T23:29:45.073Z,9.6
2023-03-25T23:35:37.081Z,9.6
2023-03-25T23:41:13.426Z,9.5
2023-03-25T23:47:06.253Z,9.4
2023-03-25T23:52:26.830Z,9.3
2023-03-25T23:58:02.672Z,9.1
